Time;durP1;ratioP1;P1;durP2;ratioP2;P2;SDS_P1;SDS_P2;PMS_P1;PMS_P2;Temp;Humidity;BMP_temperature;BMP_pressure;BME280_temperature;BME280_humidity;BME280_pressure;Samples;Min_cycle;Max_cycle;Signal;HPM_P1;HPM_P2
2021/11/18 00:00:55;;;;;;;15.85;5.50;;;;;;;5.62;100.00;102689.66;5029061;28;20319;-74
2021/11/18 00:03:23;;;;;;;19.58;5.68;;;;;;;5.56;100.00;102684.25;5026532;28;20052;-73
2021/11/18 00:05:53;;;;;;;13.85;5.57;;;;;;;5.56;100.00;102687.78;5028708;28;20064;-73
2021/11/18 00:08:22;;;;;;;25.15;6.72;;;;;;;5.65;100.00;102686.16;5027244;28;20350;-74
2021/11/18 00:10:52;;;;;;;19.38;6.25;;;;;;;5.65;100.00;102689.69;5025593;28;20135;-74
2021/11/18 00:13:22;;;;;;;19.00;5.57;;;;;;;5.67;100.00;102695.00;5026866;28;20077;-73
2021/11/18 00:15:50;;;;;;;17.73;6.00;;;;;;;5.65;100.00;102681.75;5025942;28;20041;-74
2021/11/18 00:18:22;;;;;;;23.35;5.57;;;;;;;5.65;100.00;102694.09;5030074;28;20099;-74
2021/11/18 00:20:52;;;;;;;19.20;6.10;;;;;;;5.69;100.00;102696.84;5028292;28;20639;-74
2021/11/18 00:23:22;;;;;;;28.67;7.03;;;;;;;5.61;100.00;102695.81;5030983;28;20240;-68
2021/11/18 00:25:50;;;;;;;21.65;6.18;;;;;;;5.54;100.00;102694.81;5025313;28;20110;-68
2021/11/18 00:28:18;;;;;;;20.77;6.35;;;;;;;5.57;100.00;102696.63;5028253;28;20589;-74
2021/11/18 00:30:47;;;;;;;20.02;6.07;;;;;;;5.41;100.00;102703.38;5026008;28;20158;-73
2021/11/18 00:33:16;;;;;;;18.65;5.82;;;;;;;5.31;100.00;102702.31;5026671;28;20156;-74
2021/11/18 00:35:45;;;;;;;19.10;6.43;;;;;;;5.23;100.00;102711.88;5029148;28;20239;-73
2021/11/18 00:38:13;;;;;;;23.42;6.93;;;;;;;5.25;100.00;102704.84;5024061;28;20194;-73
2021/11/18 00:40:45;;;;;;;21.50;6.53;;;;;;;5.26;100.00;102701.34;5025995;28;20049;-73
2021/11/18 00:43:14;;;;;;;21.23;6.55;;;;;;;5.22;100.00;102708.31;5022702;28;20432;-76
2021/11/18 00:45:43;;;;;;;19.48;5.88;;;;;;;5.15;100.00;102717.00;5029129;28;20056;-74
2021/11/18 00:48:12;;;;;;;27.08;7.78;;;;;;;5.13;100.00;102705.50;5029341;28;20045;-76
2021/11/18 00:50:43;;;;;;;21.50;6.78;;;;;;;5.09;100.00;102719.53;5025058;28;20138;-74
2021/11/18 00:53:32;;;;;;;18.02;5.78;;;;;;;4.98;100.00;102714.00;5028972;28;20053;-73
2021/11/18 00:56:01;;;;;;;19.00;5.75;;;;;;;4.96;100.00;102710.44;5025221;28;20045;-73
2021/11/18 00:58:29;;;;;;;17.33;5.95;;;;;;;5.00;100.00;102704.34;5022492;28;20059;-74
2021/11/18 01:00:57;;;;;;;19.17;5.57;;;;;;;5.02;100.00;102696.44;5030895;28;20112;-75
2021/11/18 01:03:26;;;;;;;24.63;6.25;;;;;;;5.05;100.00;102700.03;5025495;28;20049;-74
2021/11/18 01:05:56;;;;;;;18.90;6.75;;;;;;;5.01;100.00;102699.94;5032263;28;20060;-73
2021/11/18 01:08:25;;;;;;;17.85;6.00;;;;;;;5.03;100.00;102701.75;5029033;28;20054;-74
2021/11/18 01:10:55;;;;;;;18.60;6.45;;;;;;;5.08;100.00;102715.09;5024248;28;20049;-74
2021/11/18 01:13:26;;;;;;;23.90;6.63;;;;;;;5.07;100.00;102715.94;5028521;28;20239;-73
2021/11/18 01:15:56;;;;;;;21.85;6.47;;;;;;;5.07;100.00;102721.22;5023258;28;20266;-74
2021/11/18 01:18:25;;;;;;;16.88;6.28;;;;;;;5.00;100.00;102721.97;5030967;28;20131;-74
2021/11/18 01:20:55;;;;;;;27.60;7.78;;;;;;;5.06;100.00;102727.41;5026337;28;20048;-74
2021/11/18 01:23:26;;;;;;;18.05;6.20;;;;;;;4.98;100.00;102718.41;5027574;28;20145;-75
2021/11/18 01:25:55;;;;;;;20.35;5.90;;;;;;;4.97;100.00;102721.91;5023470;28;20223;-73
2021/11/18 01:28:25;;;;;;;20.08;7.03;;;;;;;4.89;100.00;102711.16;5027550;28;20053;-73
2021/11/18 01:30:55;;;;;;;17.13;6.28;;;;;;;4.85;100.00;102712.88;5027385;28;20049;-69
2021/11/18 01:33:23;;;;;;;14.73;5.93;;;;;;;4.84;100.00;102704.88;5024839;28;20056;-68
2021/11/18 01:35:52;;;;;;;18.10;6.53;;;;;;;4.90;100.00;102714.69;5025763;28;20078;-67
2021/11/18 01:38:21;;;;;;;20.45;6.50;;;;;;;4.88;100.00;102716.44;5024114;28;20050;-67
2021/11/18 01:40:52;;;;;;;18.58;6.20;;;;;;;4.76;100.00;102717.94;5027173;28;20053;-70
2021/11/18 01:43:23;;;;;;;16.15;6.55;;;;;;;4.67;100.00;102723.03;5021788;28;20076;-67
2021/11/18 01:45:53;;;;;;;21.23;7.00;;;;;;;4.61;100.00;102723.75;5029386;28;20056;-67
2021/11/18 01:48:22;;;;;;;22.00;6.18;;;;;;;4.62;100.00;102722.91;5024970;28;20056;-68
2021/11/18 01:50:53;;;;;;;14.27;6.78;;;;;;;4.65;100.00;102727.41;5025609;28;20084;-68
2021/11/18 01:53:23;;;;;;;15.65;5.95;;;;;;;4.58;100.00;102734.28;5021726;28;20462;-69
2021/11/18 01:55:51;;;;;;;16.08;6.20;;;;;;;4.60;100.00;102729.06;5029188;28;20493;-69
2021/11/18 01:58:21;;;;;;;15.63;6.68;;;;;;;4.66;100.00;102732.69;5027074;28;20143;-69
2021/11/18 02:00:53;;;;;;;18.00;7.75;;;;;;;4.59;100.00;102736.06;5023118;28;20121;-67
2021/11/18 02:03:22;;;;;;;21.58;7.22;;;;;;;4.59;100.00;102746.63;5021770;28;20079;-69
2021/11/18 02:05:56;;;;;;;19.75;6.68;;;;;;;4.60;100.00;102751.09;5025338;28;22685;-67
2021/11/18 02:08:25;;;;;;;16.85;5.38;;;;;;;4.57;100.00;102745.72;5031285;28;20051;-67
2021/11/18 02:10:56;;;;;;;22.63;5.60;;;;;;;4.61;100.00;102767.84;5028100;28;20045;-67
2021/11/18 02:13:26;;;;;;;18.40;6.82;;;;;;;4.65;100.00;102769.72;5026310;28;20433;-73
2021/11/18 02:15:58;;;;;;;24.15;7.13;;;;;;;4.74;100.00;102759.31;5026344;28;20091;-67
2021/11/18 02:18:28;;;;;;;17.27;6.00;;;;;;;4.83;100.00;102756.88;5027979;28;20320;-67
2021/11/18 02:21:00;;;;;;;24.58;7.50;;;;;;;4.92;100.00;102750.00;5026912;28;20416;-67
2021/11/18 02:23:30;;;;;;;15.07;5.63;;;;;;;4.94;100.00;102750.94;5022026;28;20131;-67
2021/11/18 02:25:59;;;;;;;16.48;6.50;;;;;;;4.97;100.00;102749.28;5029824;28;20128;-67
2021/11/18 02:28:31;;;;;;;17.35;6.75;;;;;;;5.03;100.00;102738.78;5026532;28;20057;-74
2021/11/18 02:31:01;;;;;;;22.60;6.63;;;;;;;5.09;100.00;102747.72;5030249;28;20041;-73
2021/11/18 02:33:29;;;;;;;25.25;7.47;;;;;;;5.27;100.00;102752.53;5026054;28;20057;-74
2021/11/18 02:36:00;;;;;;;25.30;6.30;;;;;;;5.23;100.00;102751.56;5029427;28;20493;-73
2021/11/18 02:38:28;;;;;;;22.45;6.85;;;;;;;5.29;100.00;102751.69;5026632;28;20757;-74
2021/11/18 02:40:56;;;;;;;26.42;7.60;;;;;;;5.37;100.00;102752.72;5032736;28;20048;-74
2021/11/18 02:43:26;;;;;;;19.73;6.75;;;;;;;5.47;100.00;102745.88;5031153;28;20106;-68
2021/11/18 02:45:55;;;;;;;19.42;6.78;;;;;;;5.48;100.00;102749.41;5023807;28;20152;-74
2021/11/18 02:48:22;;;;;;;19.23;6.35;;;;;;;5.57;100.00;102742.53;5029255;28;20100;-74
2021/11/18 02:50:52;;;;;;;23.88;6.35;;;;;;;5.61;100.00;102757.59;5025566;28;20230;-73
2021/11/18 02:53:23;;;;;;;31.25;6.80;;;;;;;5.69;100.00;102746.28;5028323;28;20081;-74
2021/11/18 02:55:52;;;;;;;24.00;6.30;;;;;;;5.69;100.00;102749.81;5028284;28;20122;-74
2021/11/18 02:58:22;;;;;;;23.80;6.18;;;;;;;5.73;100.00;102742.81;5028467;28;20076;-73
2021/11/18 03:00:58;;;;;;;30.80;7.55;;;;;;;5.83;100.00;102733.28;5024449;28;20493;-74
2021/11/18 03:03:27;;;;;;;20.55;6.35;;;;;;;5.88;100.00;102734.25;5026046;28;20040;-73
2021/11/18 03:05:57;;;;;;;18.42;6.40;;;;;;;5.88;100.00;102731.63;5024008;28;20056;-73
2021/11/18 03:08:27;;;;;;;23.23;7.22;;;;;;;5.88;100.00;102731.63;5033208;28;20420;-74
2021/11/18 03:10:57;;;;;;;26.63;7.13;;;;;;;6.10;100.00;102738.22;5026364;28;20037;-74
2021/11/18 03:13:27;;;;;;;21.13;6.60;;;;;;;6.04;100.00;102751.34;5032757;28;20049;-73
2021/11/18 03:15:57;;;;;;;16.73;6.57;;;;;;;6.08;100.00;102748.78;5027884;28;20080;-73
2021/11/18 03:18:26;;;;;;;27.90;7.25;;;;;;;6.11;100.00;102745.28;5025780;28;20060;-73
2021/11/18 03:20:57;;;;;;;16.38;5.90;;;;;;;6.12;100.00;102740.00;5023238;28;20461;-73
2021/11/18 03:23:28;;;;;;;25.90;6.60;;;;;;;6.27;100.00;102728.75;5032600;28;20057;-74
2021/11/18 03:25:56;;;;;;;25.30;6.05;;;;;;;6.25;100.00;102729.59;5027868;28;20051;-74
2021/11/18 03:28:29;;;;;;;20.90;6.95;;;;;;;6.30;100.00;102731.47;5025817;28;20041;-73
2021/11/18 03:30:57;;;;;;;21.00;7.40;;;;;;;6.32;100.00;102737.69;5030694;28;20051;-73
2021/11/18 03:33:27;;;;;;;16.23;6.90;;;;;;;6.42;100.00;102736.06;5025611;28;20139;-74
2021/11/18 03:35:57;;;;;;;23.42;6.82;;;;;;;6.35;100.00;102735.09;5030706;28;20053;-74
2021/11/18 03:38:28;;;;;;;16.85;6.75;;;;;;;6.32;100.00;102736.81;5023699;28;20554;-74
2021/11/18 03:41:03;;;;;;;23.75;6.70;;;;;;;6.34;100.00;102735.94;5029992;28;20060;-73
2021/11/18 03:43:37;;;;;;;21.35;5.72;;;;;;;6.40;100.00;102742.22;5026913;28;20041;-74
2021/11/18 03:46:06;;;;;;;21.52;6.22;;;;;;;6.43;100.00;102731.66;5027821;28;20053;-74
2021/11/18 03:48:36;;;;;;;21.60;6.90;;;;;;;6.39;100.00;102737.78;5027637;28;20324;-74
2021/11/18 03:51:07;;;;;;;23.50;6.35;;;;;;;6.34;100.00;102735.06;5026204;28;20059;-74
2021/11/18 03:53:38;;;;;;;21.55;6.55;;;;;;;6.35;100.00;102734.16;5026353;28;20126;-73
2021/11/18 03:56:09;;;;;;;29.83;6.07;;;;;;;6.29;100.00;102740.28;5026013;28;20081;-72
2021/11/18 03:58:37;;;;;;;24.40;6.75;;;;;;;6.28;100.00;102738.50;5027257;28;20068;-72
2021/11/18 04:01:06;;;;;;;29.60;6.78;;;;;;;6.19;100.00;102734.81;5024230;28;20648;-74
2021/11/18 04:03:34;;;;;;;23.77;6.18;;;;;;;6.13;100.00;102738.22;5023777;28;20167;-73
2021/11/18 04:06:03;;;;;;;14.45;5.22;;;;;;;6.09;100.00;102737.28;5028123;28;20042;-72
2021/11/18 04:08:30;;;;;;;25.48;6.65;;;;;;;6.11;100.00;102730.28;5026385;28;20053;-73
2021/11/18 04:11:00;;;;;;;25.08;6.03;;;;;;;6.07;100.00;102739.03;5028865;28;20049;-73
2021/11/18 04:13:28;;;;;;;22.83;5.43;;;;;;;6.02;100.00;102742.47;5027014;28;20049;-73
2021/11/18 04:15:57;;;;;;;20.13;5.95;;;;;;;5.97;100.00;102737.09;5028121;28;20648;-73
2021/11/18 04:18:25;;;;;;;18.13;5.90;;;;;;;5.94;100.00;102737.00;5026379;28;20045;-73
2021/11/18 04:20:53;;;;;;;23.23;5.90;;;;;;;5.91;100.00;102745.81;5029719;28;20448;-73
2021/11/18 04:23:23;;;;;;;19.88;5.75;;;;;;;5.88;100.00;102744.84;5024705;28;20072;-73
2021/11/18 04:25:52;;;;;;;25.13;6.03;;;;;;;5.85;100.00;102747.44;5029329;28;20293;-73
2021/11/18 04:28:22;;;;;;;20.02;6.22;;;;;;;5.80;100.00;102742.94;5027722;28;20380;-73
2021/11/18 04:30:53;;;;;;;25.40;5.75;;;;;;;5.76;100.00;102740.22;5027957;28;20240;-73
2021/11/18 04:33:22;;;;;;;20.38;6.65;;;;;;;5.75;100.00;102735.78;5021884;28;20067;-73
2021/11/18 04:35:51;;;;;;;18.80;5.97;;;;;;;5.66;100.00;102741.81;5029141;28;20147;-72
2021/11/18 04:38:19;;;;;;;31.75;7.45;;;;;;;5.58;100.00;102733.75;5027758;28;20057;-73
2021/11/18 04:40:48;;;;;;;18.48;6.13;;;;;;;5.55;100.00;102730.09;5024336;28;20045;-73
2021/11/18 04:43:24;;;;;;;23.88;6.15;;;;;;;5.55;100.00;102717.78;5028809;28;20057;-73
2021/11/18 04:45:52;;;;;;;14.13;5.45;;;;;;;5.50;100.00;102703.56;5025767;28;20540;-73
2021/11/18 04:48:21;;;;;;;17.58;5.97;;;;;;;5.59;100.00;102708.13;5026844;28;20408;-73
2021/11/18 04:50:49;;;;;;;16.90;5.85;;;;;;;5.60;100.00;102715.19;5023482;28;20444;-74
2021/11/18 04:53:18;;;;;;;23.35;6.55;;;;;;;5.58;100.00;102717.84;5025602;28;20546;-72
2021/11/18 04:55:46;;;;;;;22.98;6.70;;;;;;;5.57;100.00;102721.34;5024530;28;20558;-73
2021/11/18 04:58:15;;;;;;;26.40;5.93;;;;;;;5.67;100.00;102711.81;5029704;28;20505;-67
2021/11/18 05:00:49;;;;;;;19.98;6.45;;;;;;;5.74;100.00;102704.88;5027854;28;20061;-68
2021/11/18 05:03:18;;;;;;;20.95;6.05;;;;;;;5.78;100.00;102702.28;5025176;28;20061;-68
2021/11/18 05:05:48;;;;;;;21.25;6.05;;;;;;;5.69;100.00;102696.84;5026586;28;20055;-69
2021/11/18 05:08:16;;;;;;;18.27;5.93;;;;;;;5.75;100.00;102710.19;5024944;28;20048;-68
2021/11/18 05:10:46;;;;;;;21.10;6.53;;;;;;;5.77;100.00;102718.16;5026859;28;20048;-69
2021/11/18 05:13:15;;;;;;;22.27;6.13;;;;;;;5.68;100.00;102731.25;5023590;28;20132;-69
2021/11/18 05:15:47;;;;;;;32.72;6.88;;;;;;;5.67;100.00;102722.41;5030809;28;20063;-69
2021/11/18 05:18:16;;;;;;;25.30;6.95;;;;;;;5.64;100.00;102717.06;5024759;28;20156;-69
2021/11/18 05:20:45;;;;;;;18.48;6.50;;;;;;;5.63;100.00;102732.91;5028322;28;20049;-68
2021/11/18 05:23:13;;;;;;;29.48;7.25;;;;;;;5.52;100.00;102723.03;5030309;28;20045;-74
2021/11/18 05:25:42;;;;;;;24.92;7.38;;;;;;;5.53;100.00;102723.91;5028348;28;20057;-74
2021/11/18 05:28:11;;;;;;;20.10;6.80;;;;;;;5.56;100.00;102721.31;5026328;28;20064;-73
2021/11/18 05:30:39;;;;;;;20.77;6.40;;;;;;;5.56;100.00;102737.19;5022456;28;20053;-73
2021/11/18 05:33:13;;;;;;;20.63;6.55;;;;;;;5.51;100.00;102729.16;5026954;28;20045;-74
2021/11/18 05:35:42;;;;;;;;;;;;;;;5.61;100.00;102723.19;5026459;28;20072;-74
2021/11/18 05:38:10;;;;;;;23.08;7.50;;;;;;;5.57;100.00;102721.34;5025404;28;19928;-74
2021/11/18 05:40:40;;;;;;;24.08;7.97;;;;;;;5.51;100.00;102715.91;5024963;28;20053;-68
2021/11/18 05:43:08;;;;;;;19.27;6.47;;;;;;;5.49;100.00;102716.78;5023328;28;20295;-69
2021/11/18 05:45:37;;;;;;;24.80;6.32;;;;;;;5.58;100.00;102720.50;5027340;28;20037;-68
2021/11/18 05:48:15;;;;;;;28.67;7.97;;;;;;;5.53;100.00;102724.78;5028357;28;20128;-74
2021/11/18 05:50:46;;;;;;;25.73;7.40;;;;;;;5.53;100.00;102735.38;5029869;28;20099;-74
2021/11/18 05:53:15;;;;;;;22.73;6.80;;;;;;;5.52;100.00;102728.31;5025923;28;20041;-73
2021/11/18 05:55:43;;;;;;;22.55;6.28;;;;;;;5.68;100.00;102720.66;5026247;28;20081;-68
2021/11/18 05:58:11;;;;;;;26.42;6.40;;;;;;;5.68;100.00;102726.84;5026087;28;20144;-69
2021/11/18 06:00:39;;;;;;;17.42;6.40;;;;;;;5.67;100.00;102721.50;5028264;28;20148;-75
2021/11/18 06:03:09;;;;;;;24.83;7.03;;;;;;;5.80;100.00;102724.41;5029759;28;20049;-74
2021/11/18 06:05:37;;;;;;;20.42;6.25;;;;;;;5.79;100.00;102730.56;5027017;28;20213;-74
2021/11/18 06:08:05;;;;;;;25.52;7.32;;;;;;;5.84;100.00;102732.41;5034568;28;20128;-74
2021/11/18 06:10:35;;;;;;;23.63;7.32;;;;;;;5.90;100.00;102727.22;5030138;28;20415;-74
2021/11/18 06:13:03;;;;;;;25.40;6.70;;;;;;;5.83;100.00;102733.28;5026612;28;20257;-68
2021/11/18 06:15:32;;;;;;;18.98;7.82;;;;;;;5.85;100.00;102731.56;5030015;28;20138;-68
2021/11/18 06:18:00;;;;;;;27.30;7.53;;;;;;;5.85;100.00;102740.38;5032035;28;20842;-68
2021/11/18 06:20:29;;;;;;;21.88;6.90;;;;;;;5.83;100.00;102734.16;5028578;28;20057;-68
2021/11/18 06:22:57;;;;;;;24.95;7.22;;;;;;;5.88;100.00;102731.63;5029437;28;20118;-73
2021/11/18 06:25:29;;;;;;;31.70;8.10;;;;;;;5.90;100.00;102737.81;5026706;28;20081;-74
2021/11/18 06:27:58;;;;;;;24.67;6.82;;;;;;;5.89;100.00;102734.28;5030353;28;20208;-74
2021/11/18 06:30:32;;;;;;;23.50;8.10;;;;;;;5.86;100.00;102736.88;5028519;28;20055;-74
2021/11/18 06:33:00;;;;;;;21.60;6.85;;;;;;;5.92;100.00;102725.50;5029102;28;20059;-74
2021/11/18 06:35:30;;;;;;;23.25;6.53;;;;;;;5.89;100.00;102725.44;5022836;28;20134;-74
2021/11/18 06:37:58;;;;;;;25.02;7.18;;;;;;;5.87;100.00;102728.06;5028379;28;20053;-74
2021/11/18 06:40:27;;;;;;;23.42;6.93;;;;;;;6.01;100.00;102724.78;5033209;28;20156;-74
2021/11/18 06:42:55;;;;;;;24.83;7.40;;;;;;;6.01;100.00;102727.44;5026622;28;20053;-74
2021/11/18 06:45:26;;;;;;;22.05;6.28;;;;;;;6.08;100.00;102738.19;5023185;28;20112;-74
2021/11/18 06:47:55;;;;;;;22.95;6.93;;;;;;;6.13;100.00;102736.50;5032885;28;20554;-74
2021/11/18 06:50:23;;;;;;;20.48;6.90;;;;;;;6.14;100.00;102722.34;5008358;28;20415;-74
2021/11/18 06:52:52;;;;;;;26.67;7.43;;;;;;;6.14;100.00;102734.72;5023070;28;20045;-74
2021/11/18 06:55:20;;;;;;;23.98;6.75;;;;;;;6.07;100.00;102741.69;5028967;28;20097;-74
2021/11/18 06:57:49;;;;;;;25.67;7.75;;;;;;;6.11;100.00;102747.94;5025749;28;20053;-74
2021/11/18 07:00:19;;;;;;;31.02;6.80;;;;;;;6.12;100.00;102747.94;5033295;28;20052;-74
2021/11/18 07:02:51;;;;;;;18.67;6.93;;;;;;;6.11;100.00;102748.84;5024372;28;20049;-74
2021/11/18 07:05:19;;;;;;;27.95;7.07;;;;;;;6.18;100.00;102752.50;5031532;28;20067;-68
2021/11/18 07:07:47;;;;;;;24.88;7.68;;;;;;;6.17;100.00;102750.69;5029953;28;20236;-68
2021/11/18 07:10:24;;;;;;;32.95;7.45;;;;;;;6.21;100.00;102771.06;5027791;28;20036;-68
2021/11/18 07:12:54;;;;;;;29.08;8.65;;;;;;;6.28;100.00;102785.31;5026599;28;20060;-68
2021/11/18 07:15:24;;;;;;;22.33;6.97;;;;;;;6.35;100.00;102789.84;5024479;28;20052;-68
2021/11/18 07:17:54;;;;;;;22.85;6.80;;;;;;;6.40;100.00;102793.47;5030923;28;20106;-68
2021/11/18 07:20:23;;;;;;;28.73;8.10;;;;;;;6.49;100.00;102796.28;5029116;28;20045;-68
2021/11/18 07:22:51;;;;;;;28.15;8.32;;;;;;;6.53;100.00;102787.50;5028450;28;20477;-68
2021/11/18 07:25:21;;;;;;;19.70;7.63;;;;;;;6.54;100.00;102785.78;5027735;28;20061;-68
2021/11/18 07:27:51;;;;;;;27.15;8.30;;;;;;;6.53;100.00;102791.94;5026133;28;20045;-68
2021/11/18 07:30:21;;;;;;;19.20;8.38;;;;;;;6.56;100.00;102791.97;5029288;28;20171;-69
2021/11/18 07:32:49;;;;;;;34.17;8.75;;;;;;;6.57;100.00;102800.81;5024578;28;20103;-68
2021/11/18 07:35:18;;;;;;;22.05;8.65;;;;;;;6.52;100.00;102796.34;5028757;28;20052;-68
2021/11/18 07:37:46;;;;;;;24.75;7.70;;;;;;;6.51;100.00;102799.84;5027417;28;20136;-68
2021/11/18 07:40:17;;;;;;;21.90;7.85;;;;;;;6.55;100.00;102798.13;5026303;28;20136;-68
2021/11/18 07:42:46;;;;;;;23.13;6.82;;;;;;;6.65;100.00;102805.38;5027901;28;20088;-69
2021/11/18 07:45:17;;;;;;;31.73;9.07;;;;;;;6.65;100.00;102799.19;5024889;28;20490;-68
2021/11/18 07:47:45;;;;;;;25.02;8.18;;;;;;;6.78;100.00;102805.59;5025687;28;20092;-68
2021/11/18 07:50:14;;;;;;;26.83;8.13;;;;;;;6.78;100.00;102800.28;5021942;28;20273;-68
2021/11/18 07:52:43;;;;;;;32.80;8.90;;;;;;;6.78;100.00;102801.16;5020779;28;20129;-68
2021/11/18 07:55:14;;;;;;;26.25;8.98;;;;;;;6.87;100.00;102792.44;5028775;28;20796;-68
2021/11/18 07:57:42;;;;;;;28.00;8.38;;;;;;;6.91;100.00;102784.56;5024871;28;20148;-68
2021/11/18 08:00:16;;;;;;;20.35;7.80;;;;;;;6.95;100.00;102780.19;5022547;28;20057;-68
2021/11/18 08:02:46;;;;;;;36.00;9.48;;;;;;;7.01;100.00;102787.31;5020645;28;20142;-68
2021/11/18 08:05:15;;;;;;;24.60;8.57;;;;;;;6.98;100.00;102796.16;5024982;28;20071;-68
2021/11/18 08:07:43;;;;;;;29.60;9.20;;;;;;;6.98;100.00;102800.53;5023787;28;20081;-69
2021/11/18 08:10:13;;;;;;;31.75;8.65;;;;;;;6.97;100.00;102791.69;5025893;28;20056;-73
2021/11/18 08:12:42;;;;;;;25.27;8.50;;;;;;;6.96;100.00;102789.91;5021165;28;20603;-74
2021/11/18 08:15:11;;;;;;;24.75;8.23;;;;;;;7.03;100.00;102781.19;5030019;28;20164;-74
2021/11/18 08:17:40;;;;;;;24.73;8.05;;;;;;;7.10;100.00;102784.81;5028674;28;20130;-73
2021/11/18 08:20:10;;;;;;;24.67;9.10;;;;;;;7.02;100.00;102783.81;5025484;28;20073;-68
2021/11/18 08:22:38;;;;;;;23.00;7.72;;;;;;;7.09;100.00;102793.63;5029739;28;20497;-68
2021/11/18 08:25:07;;;;;;;30.83;8.75;;;;;;;7.11;100.00;102786.56;5028782;28;20127;-68
2021/11/18 08:27:35;;;;;;;17.42;6.65;;;;;;;7.04;100.00;102798.00;5027463;28;20100;-68
2021/11/18 08:30:05;;;;;;;23.27;7.07;;;;;;;7.09;100.00;102802.47;5024711;28;20148;-68
2021/11/18 08:32:33;;;;;;;22.27;7.95;;;;;;;7.13;100.00;102797.22;5031946;28;20077;-68
2021/11/18 08:35:01;;;;;;;19.58;6.63;;;;;;;7.11;100.00;102795.41;5026053;28;20339;-68
2021/11/18 08:37:30;;;;;;;22.58;6.72;;;;;;;7.14;100.00;102799.91;5028626;28;20091;-68
2021/11/18 08:39:58;;;;;;;28.60;8.50;;;;;;;7.22;100.00;102799.97;5026873;28;20060;-69
2021/11/18 08:42:27;;;;;;;31.50;8.73;;;;;;;7.27;100.00;102796.53;5024935;28;20144;-68
2021/11/18 08:44:57;;;;;;;24.52;7.72;;;;;;;7.35;100.00;102799.28;5029654;28;20057;-68
2021/11/18 08:47:26;;;;;;;25.20;7.95;;;;;;;7.45;100.00;102797.63;5028070;28;20053;-68
2021/11/18 08:49:58;;;;;;;29.48;8.95;;;;;;;7.56;100.00;102787.13;5028065;28;20256;-67
2021/11/18 08:52:32;;;;;;;18.00;8.70;;;;;;;7.67;100.00;102777.50;5026676;28;20049;-67
2021/11/18 08:55:02;;;;;;;24.95;8.80;;;;;;;7.77;100.00;102773.19;5026728;28;20140;-68
2021/11/18 08:57:30;;;;;;;22.77;7.75;;;;;;;7.78;100.00;102775.88;5026561;28;20051;-68
2021/11/18 08:59:58;;;;;;;32.67;8.38;;;;;;;7.87;100.00;102780.38;5025826;28;20045;-68
2021/11/18 09:02:28;;;;;;;29.77;9.00;;;;;;;7.94;100.00;102782.22;5028338;28;20045;-68
2021/11/18 09:04:59;;;;;;;26.08;8.32;;;;;;;7.92;100.00;102785.75;5023269;28;20045;-68
2021/11/18 09:07:28;;;;;;;28.65;7.63;;;;;;;7.94;100.00;102784.00;5026190;28;20041;-68
2021/11/18 09:09:57;;;;;;;25.35;8.70;;;;;;;7.99;100.00;102782.28;5027064;28;20742;-68
2021/11/18 09:12:26;;;;;;;24.25;7.13;;;;;;;7.96;100.00;102784.91;5023375;28;20549;-68
2021/11/18 09:14:54;;;;;;;29.95;8.65;;;;;;;7.98;100.00;102791.13;5024756;28;20050;-68
2021/11/18 09:17:24;;;;;;;20.02;6.88;;;;;;;8.00;100.00;102784.94;5023167;28;20136;-68
2021/11/18 09:19:52;;;;;;;27.25;8.40;;;;;;;8.05;100.00;102784.97;5024898;28;20053;-68
2021/11/18 09:22:20;;;;;;;21.88;6.75;;;;;;;8.12;100.00;102802.78;5023424;28;20041;-68
2021/11/18 09:24:51;;;;;;;26.48;7.57;;;;;;;8.21;100.00;102796.66;5024263;28;20053;-68
2021/11/18 09:27:25;;;;;;;19.35;7.85;;;;;;;8.25;100.00;102798.47;5028750;28;20052;-68
2021/11/18 09:29:54;;;;;;;30.92;7.55;;;;;;;8.33;100.00;102799.41;5024345;28;20095;-72
2021/11/18 09:32:28;;;;;;;21.58;7.28;;;;;;;8.38;100.00;102797.69;5024920;28;20049;-73
2021/11/18 09:34:59;;;;;;;23.00;8.40;;;;;;;8.47;100.00;102804.00;5025968;28;20080;-73
2021/11/18 09:37:28;;;;;;;27.98;7.45;;;;;;;8.57;100.00;102808.50;5032076;28;20080;-73
2021/11/18 09:39:56;;;;;;;23.00;8.25;;;;;;;8.56;100.00;102806.72;5027268;28;20516;-73
2021/11/18 09:42:37;;;;;;;29.08;7.68;;;;;;;8.63;100.00;102805.00;5035634;28;20111;-73
2021/11/18 09:45:20;;;;;;;27.58;8.07;;;;;;;8.69;100.00;102813.03;5030057;28;20086;-73
2021/11/18 09:48:17;;;;;;;21.38;7.15;;;;;;;8.84;100.00;102815.81;5031411;28;20419;-68
2021/11/18 09:50:51;;;;;;;23.98;7.18;;;;;;;8.93;100.00;102814.97;5026392;28;20048;-73
2021/11/18 09:53:33;;;;;;;23.83;7.45;;;;;;;9.01;100.00;102815.91;5029489;28;20153;-72
2021/11/18 09:56:08;;;;;;;25.25;7.72;;;;;;;9.06;100.00;102832.81;5026469;28;20045;-73
2021/11/18 09:58:58;;;;;;;32.35;7.22;;;;;;;9.12;100.00;102829.28;5013373;28;20056;-69
2021/11/18 10:01:45;;;;;;;27.33;7.47;;;;;;;9.18;100.00;102839.97;5029526;28;20136;-68
2021/11/18 10:04:27;;;;;;;25.13;8.18;;;;;;;9.29;100.00;102834.69;5026681;28;20774;-68
2021/11/18 10:06:57;;;;;;;20.40;6.65;;;;;;;9.37;100.00;102837.41;5011816;28;20049;-68
2021/11/18 10:09:31;;;;;;;26.88;7.28;;;;;;;9.44;100.00;102836.56;5012914;28;20187;-69
2021/11/18 10:12:06;;;;;;;26.77;8.15;;;;;;;9.54;100.00;102835.72;5026564;28;20413;-69
2021/11/18 10:14:54;;;;;;;23.80;7.38;;;;;;;9.54;100.00;102836.59;5025430;28;20485;-69
2021/11/18 10:17:28;;;;;;;26.42;6.63;;;;;;;9.67;100.00;102832.22;5030610;28;20447;-74
2021/11/18 10:20:01;;;;;;;21.60;7.68;;;;;;;9.74;100.00;102835.78;5026342;28;20557;-73
2021/11/18 10:22:32;;;;;;;22.60;8.57;;;;;;;9.85;100.00;102838.47;5031553;28;20132;-74
2021/11/18 10:25:00;;;;;;;21.17;6.70;;;;;;;9.82;100.00;102820.69;5029667;28;20056;-69
2021/11/18 10:27:33;;;;;;;26.27;7.25;;;;;;;9.85;100.00;102825.16;5027682;28;20065;-70
2021/11/18 10:30:20;;;;;;;18.30;7.18;;;;;;;9.91;100.00;102817.16;5025385;28;20059;-70
2021/11/18 10:32:55;;;;;;;23.23;7.60;;;;;;;9.96;100.00;102814.50;5034150;28;20240;-67
2021/11/18 10:35:39;;;;;;;18.70;6.40;;;;;;;9.99;100.00;102812.72;5031880;28;20537;-67
2021/11/18 10:38:19;;;;;;;24.67;7.43;;;;;;;10.07;100.00;102810.06;5028097;28;20081;-71
2021/11/18 10:40:58;;;;;;;28.05;7.45;;;;;;;10.14;100.00;102813.66;5030575;28;20679;-73
2021/11/18 10:43:30;;;;;;;29.77;8.10;;;;;;;10.16;100.00;102820.75;5027317;28;20520;-73
2021/11/18 10:46:12;;;;;;;22.00;7.10;;;;;;;10.19;100.00;102811.88;5030432;28;20077;-73
2021/11/18 10:48:48;;;;;;;26.08;7.03;;;;;;;10.30;100.00;102812.78;5024933;28;20064;-74
2021/11/18 10:51:20;;;;;;;29.63;7.15;;;;;;;10.31;100.00;102809.19;5026796;28;20398;-74
2021/11/18 10:53:51;;;;;;;28.40;6.90;;;;;;;10.38;100.00;102799.47;5026298;28;20061;-74
2021/11/18 10:56:23;;;;;;;22.92;7.97;;;;;;;10.42;100.00;102801.22;5030664;28;20077;-75
2021/11/18 10:59:04;;;;;;;27.60;8.13;;;;;;;10.47;100.00;102796.78;5028521;28;20092;-73
2021/11/18 11:01:37;;;;;;;24.38;6.13;;;;;;;10.54;100.00;102795.00;5028679;28;20056;-73
2021/11/18 11:04:08;;;;;;;26.13;7.68;;;;;;;10.52;100.00;102789.69;5028398;28;20134;-73
2021/11/18 11:06:52;;;;;;;19.90;6.22;;;;;;;10.57;100.00;102778.97;5022909;28;20711;-73
2021/11/18 11:09:22;;;;;;;22.90;6.75;;;;;;;10.64;100.00;102776.31;5026599;28;20048;-74
2021/11/18 11:12:06;;;;;;;21.73;6.82;;;;;;;10.62;99.45;102767.44;5021249;28;20128;-73
2021/11/18 11:14:57;;;;;;;17.63;6.07;;;;;;;10.75;100.00;102770.06;5029573;28;20318;-74
2021/11/18 11:17:48;;;;;;;23.98;6.35;;;;;;;10.77;100.00;102768.28;5024024;28;20330;-74
2021/11/18 11:20:21;;;;;;;25.52;6.63;;;;;;;10.68;99.04;102763.84;5028750;28;20076;-74
2021/11/18 11:22:54;;;;;;;22.88;7.40;;;;;;;10.82;99.46;102763.81;5032260;28;20228;-74
2021/11/18 11:25:45;;;;;;;24.23;6.72;;;;;;;10.84;98.89;102778.94;5026424;28;20053;-73
2021/11/18 11:28:48;;;;;;;15.18;6.20;;;;;;;10.82;98.48;102778.03;5025014;28;20348;-73
2021/11/18 11:31:29;;;;;;;24.65;6.10;;;;;;;10.87;98.46;102777.16;5014301;28;20122;-73
2021/11/18 11:34:06;;;;;;;21.92;6.18;;;;;;;10.93;97.81;102775.38;5029028;28;20080;-72